Terminal Aerodrome Forecast
Issued by NWS Cleveland, OH

Home | Current Version | Previous Version | Graphics & Text | Print | Product List | Glossary Off
Versions: 1 2 3 4 5 6 7 8 9 10 11 12 13 14 15 16 17 18 19 20 21 22 23 24

000
FTUS41 KCLE 271500 AAA
TAFERI
TAF AMD
KERI 271507Z 2715/2812 30010KT P6SM -SN OVC015
     FM272100 32014KT 4SM -SHSN BKN015
     FM280000 32010KT P6SM OVC050
     FM280300 31007KT P6SM BKN250=

USA.gov is the U.S. government's official web portal to all federal, state and local government web resources and services.